Você está realizando uma questão de Piloto Privado de Avião - Meteorologia.

No TAF SBCG 100900Z 1012/1112 22008KT 3000 HZ SCT020 TEMPO 1017/1022 27010G20KT TSRA SCT025 FEW030CB TN21/1013Z TX30/1021Z, previu-se:

Você acertou a questão!

A resposta correta é a letra B

Explicação da resposta correta:

No código TAF "SBCG 100900Z 1012/1112 22008KT 3000 HZ SCT020 TEMPO 1017/1022 27010G20KT TSRA SCT025 FEW030CB TN21/1013Z TX30/1021Z", a parte "3000 HZ" indica que a visibilidade prevista é de 3000 metros e está associada a névoa seca (HZ) durante todo o período previsto. A névoa seca (HZ) é caracterizada pela presença de partículas secas em suspensão no ar, que reduzem a visibilidade horizontal. Geralmente ocorre em áreas áridas ou semiáridas, onde há pouca umidade disponível para formar nevoeiro convencional. A visibilidade de 3000 metros indica que a visibilidade será moderadamente reduzida, mas não ao ponto de causar grandes interrupções nas operações aéreas.

OPS...

Parece que você ainda não possui nenhum plano de assinatura conosco. Não perca tempo! Assine agora um dos nossos planos para ter acesso imediato às respostas. Adquira já!

plugins premium WordPress